Westport, Oklahoma
Current Conditions -  °F | °C
As of 3:15 AM on Sunday 21 Dec 2014 (Local Time) from KOWP Reporting Station
Overcast Overcast  
Wind Chill: 44°   Ceiling: 2600
Heat Index: 44°   Visibility: 10mi
Dew Point: 39°   Wind: 3mph
Humidity: 84%   Direction: 180°S
Pressure: 30.12"   Gusts: NA
Location:  36.248°N, 96.4789°W
Report Text: KOWP 210915Z AUTO 18003KT 10SM OVC026 07/04 A3012 RMK AO2 T00660040
Loading
Personal Weather Stations






























Interactive Weather Map New forecast layout! Learn more

10-Day Weather Forecast

Advertisements
Track Severe Weather on mobile